createdAt,value
2023-01-18T00:41:00.246Z,618.00
2023-01-18T00:43:00.445Z,613.00
2023-01-18T00:44:00.180Z,612.00
2023-01-18T00:45:00.122Z,614.00
2023-01-18T00:46:00.103Z,614.00
2023-01-18T00:47:00.055Z,615.00
2023-01-18T00:48:00.111Z,614.00
2023-01-18T00:48:59.981Z,614.00
2023-01-18T00:49:59.993Z,612.00
2023-01-18T00:51:00.007Z,613.00
2023-01-18T00:51:59.945Z,615.00
2023-01-18T00:53:00.468Z,613.00
2023-01-18T00:53:59.877Z,614.00
2023-01-18T00:54:59.823Z,614.00
2023-01-18T00:55:59.783Z,613.00
2023-01-18T00:56:59.797Z,611.00
2023-01-18T00:57:59.742Z,607.00
2023-01-18T00:58:59.716Z,606.00
2023-01-18T00:59:59.693Z,606.00
2023-01-18T01:00:59.747Z,605.00
2023-01-18T01:01:59.829Z,607.00
2023-01-18T01:03:00.084Z,609.00
2023-01-18T01:03:59.570Z,608.00
2023-01-18T01:04:59.557Z,606.00
2023-01-18T01:05:59.538Z,609.00
2023-01-18T01:06:59.491Z,610.00
2023-01-18T01:07:59.496Z,608.00
2023-01-18T01:08:59.430Z,610.00
2023-01-18T01:09:59.411Z,609.00
2023-01-18T01:10:59.381Z,610.00
2023-01-18T01:11:59.372Z,609.00
2023-01-18T01:12:59.836Z,608.00
2023-01-18T01:13:59.296Z,607.00
2023-01-18T01:14:59.291Z,604.00
2023-01-18T01:15:59.242Z,604.00
2023-01-18T01:16:59.201Z,605.00
2023-01-18T01:17:59.269Z,603.00
2023-01-18T01:18:59.149Z,601.00
2023-01-18T01:19:59.118Z,601.00
2023-01-18T01:20:59.076Z,601.00
2023-01-18T01:21:59.075Z,601.00
2023-01-18T01:22:59.318Z,603.00
2023-01-18T01:23:59.027Z,603.00
2023-01-18T01:24:58.963Z,603.00
2023-01-18T01:25:58.935Z,601.00
2023-01-18T01:33:58.686Z,598.00
2023-01-18T01:34:58.638Z,598.00
2023-01-18T01:35:58.661Z,600.00
2023-01-18T01:36:58.577Z,600.00
2023-01-18T01:37:58.554Z,597.00
2023-01-18T01:38:58.532Z,597.00
2023-01-18T01:39:58.491Z,597.00
2023-01-18T01:40:58.456Z,597.00
2023-01-18T01:41:58.418Z,596.00
2023-01-18T01:42:58.785Z,598.00
2023-01-18T01:43:58.393Z,597.00
2023-01-18T01:44:58.338Z,600.00
2023-01-18T01:45:58.331Z,598.00
2023-01-18T01:46:58.287Z,599.00
2023-01-18T01:47:58.269Z,599.00
2023-01-18T01:48:58.235Z,599.00
2023-01-18T01:49:58.191Z,600.00
2023-01-18T01:50:58.161Z,599.00
2023-01-18T01:51:58.140Z,599.00
2023-01-18T01:52:58.303Z,597.00
2023-01-18T01:53:58.119Z,593.00
2023-01-18T01:54:58.054Z,593.00
2023-01-18T01:55:58.017Z,592.00
2023-01-18T01:56:58.007Z,591.00
2023-01-18T01:57:57.964Z,591.00
2023-01-18T01:58:57.955Z,591.00
2023-01-18T01:59:57.918Z,591.00
2023-01-18T02:00:57.956Z,588.00
2023-01-18T02:01:57.884Z,589.00
2023-01-18T02:02:58.230Z,587.00
2023-01-18T02:03:57.821Z,585.00
2023-01-18T02:04:57.772Z,585.00
2023-01-18T02:05:57.736Z,587.00
2023-01-18T02:06:57.722Z,588.00
2023-01-18T02:07:57.692Z,586.00
2023-01-18T02:08:57.665Z,585.00
2023-01-18T02:09:57.646Z,584.00
2023-01-18T02:10:57.600Z,586.00
2023-01-18T02:11:57.586Z,587.00
2023-01-18T02:12:57.835Z,589.00
2023-01-18T02:13:57.522Z,591.00
2023-01-18T02:14:57.507Z,588.00
2023-01-18T02:15:57.471Z,590.00
2023-01-18T02:16:57.569Z,590.00
2023-01-18T02:17:57.424Z,588.00
2023-01-18T02:18:57.381Z,587.00
2023-01-18T02:19:57.363Z,584.00
2023-01-18T02:20:57.331Z,582.00
2023-01-18T02:21:57.332Z,582.00
2023-01-18T02:22:57.654Z,581.00
2023-01-18T02:23:57.258Z,584.00
2023-01-18T02:24:58.933Z,581.00
2023-01-18T02:25:57.191Z,582.00
2023-01-18T02:26:57.215Z,582.00
2023-01-18T02:27:57.135Z,581.00
2023-01-18T02:28:57.101Z,581.00
2023-01-18T02:29:57.080Z,577.00
2023-01-18T02:30:57.072Z,577.00
2023-01-18T02:31:57.024Z,578.00
2023-01-18T02:32:57.383Z,575.00
2023-01-18T02:33:56.967Z,576.00
2023-01-18T02:34:56.932Z,574.00
2023-01-18T02:35:56.929Z,574.00
2023-01-18T02:36:56.872Z,574.00
2023-01-18T02:37:56.830Z,574.00
2023-01-18T02:38:56.792Z,575.00
2023-01-18T02:39:56.809Z,576.00
2023-01-18T02:40:56.727Z,576.00
2023-01-18T02:41:56.708Z,575.00
2023-01-18T02:42:57.082Z,576.00
2023-01-18T02:43:56.695Z,574.00
2023-01-18T02:44:56.745Z,576.00
2023-01-18T02:45:56.708Z,575.00
2023-01-18T02:46:56.571Z,575.00
2023-01-18T02:47:56.537Z,574.00
2023-01-18T02:48:56.493Z,574.00
2023-01-18T02:49:56.478Z,572.00
2023-01-18T02:50:56.439Z,572.00
2023-01-18T02:51:56.400Z,574.00
2023-01-18T02:52:56.713Z,573.00
2023-01-18T02:53:56.354Z,572.00
2023-01-18T02:54:56.314Z,572.00
2023-01-18T02:55:56.296Z,571.00
2023-01-18T02:56:56.258Z,568.00
2023-01-18T02:57:56.225Z,569.00
2023-01-18T02:58:56.188Z,571.00
2023-01-18T02:59:56.173Z,570.00
2023-01-18T03:00:56.178Z,570.00
2023-01-18T03:01:56.170Z,571.00
2023-01-18T03:02:56.579Z,572.00
2023-01-18T03:03:56.080Z,572.00
2023-01-18T03:04:56.049Z,574.00
2023-01-18T03:05:56.017Z,576.00
2023-01-18T03:06:55.989Z,574.00
2023-01-18T03:07:55.943Z,576.00
2023-01-18T03:08:55.922Z,576.00
2023-01-18T03:09:55.890Z,578.00
2023-01-18T03:10:55.881Z,577.00
2023-01-18T03:11:55.842Z,575.00
2023-01-18T03:12:56.341Z,576.00
2023-01-18T03:13:55.788Z,575.00
2023-01-18T03:14:55.762Z,576.00
2023-01-18T03:15:55.850Z,573.00
2023-01-18T03:16:55.712Z,572.00
2023-01-18T03:17:55.713Z,571.00
2023-01-18T03:18:55.662Z,573.00
2023-01-18T03:19:55.625Z,572.00
2023-01-18T03:20:55.596Z,573.00
2023-01-18T03:21:55.581Z,572.00
2023-01-18T03:22:56.085Z,574.00
2023-01-18T03:23:55.511Z,574.00
2023-01-18T03:24:55.486Z,573.00
2023-01-18T03:25:55.472Z,572.00
2023-01-18T03:26:55.449Z,571.00
2023-01-18T03:27:55.407Z,572.00
2023-01-18T03:28:55.375Z,574.00
2023-01-18T03:29:55.347Z,574.00
2023-01-18T03:30:55.392Z,573.00
2023-01-18T03:31:55.308Z,573.00
2023-01-18T03:32:55.827Z,574.00
2023-01-18T03:33:55.248Z,571.00
2023-01-18T03:34:55.230Z,572.00
2023-01-18T03:35:55.221Z,574.00
2023-01-18T03:36:55.180Z,574.00
2023-01-18T03:37:55.165Z,573.00
2023-01-18T03:38:55.147Z,573.00
2023-01-18T03:39:55.111Z,573.00
2023-01-18T03:40:55.105Z,571.00
2023-01-18T03:41:55.057Z,569.00
2023-01-18T03:42:55.286Z,568.00
2023-01-18T03:43:54.994Z,567.00
2023-01-18T03:44:54.974Z,567.00
2023-01-18T03:45:55.036Z,566.00
2023-01-18T03:46:54.921Z,564.00
2023-01-18T03:47:54.905Z,565.00
2023-01-18T03:48:54.875Z,567.00
2023-01-18T03:49:55.706Z,566.00
2023-01-18T03:50:54.844Z,566.00
2023-01-18T03:51:54.825Z,565.00
2023-01-18T03:52:55.125Z,565.00
2023-01-18T03:53:54.746Z,564.00
2023-01-18T03:54:54.736Z,562.00
2023-01-18T03:55:54.694Z,561.00
2023-01-18T03:56:54.667Z,561.00
2023-01-18T03:57:54.626Z,562.00
2023-01-18T03:58:54.608Z,562.00
2023-01-18T03:59:54.572Z,563.00
2023-01-18T04:00:54.591Z,563.00
2023-01-18T04:01:54.546Z,563.00
2023-01-18T04:02:54.569Z,564.00
2023-01-18T04:03:54.541Z,562.00
2023-01-18T04:04:55.290Z,563.00
2023-01-18T04:05:54.425Z,561.00
2023-01-18T04:06:54.384Z,560.00
2023-01-18T04:07:54.370Z,559.00
2023-01-18T04:08:54.322Z,558.00
2023-01-18T04:09:54.327Z,560.00
2023-01-18T04:10:54.281Z,559.00
2023-01-18T04:11:54.279Z,561.00
2023-01-18T04:12:54.234Z,565.00
2023-01-18T04:13:54.646Z,564.00
2023-01-18T04:14:54.181Z,562.00
2023-01-18T04:15:54.163Z,563.00
2023-01-18T04:16:54.113Z,564.00
2023-01-18T04:17:54.062Z,561.00
2023-01-18T04:18:54.061Z,559.00
2023-01-18T04:19:54.021Z,560.00
2023-01-18T04:20:53.988Z,559.00
2023-01-18T04:21:53.995Z,560.00
2023-01-18T04:22:53.956Z,557.00
2023-01-18T04:23:53.914Z,557.00
2023-01-18T04:24:53.874Z,556.00
2023-01-18T04:25:53.870Z,557.00
2023-01-18T04:26:53.850Z,556.00
2023-01-18T04:27:53.832Z,555.00
2023-01-18T04:28:53.787Z,554.00
2023-01-18T04:29:53.768Z,555.00
2023-01-18T04:30:53.792Z,557.00
2023-01-18T04:31:53.731Z,559.00
2023-01-18T04:32:53.703Z,558.00
2023-01-18T04:33:53.654Z,559.00
2023-01-18T04:34:53.655Z,559.00
2023-01-18T04:35:53.610Z,559.00
2023-01-18T04:36:53.611Z,560.00
2023-01-18T04:37:53.554Z,557.00
2023-01-18T04:38:53.518Z,556.00
2023-01-18T04:39:53.483Z,556.00
2023-01-18T04:40:53.456Z,554.00
2023-01-18T04:41:53.965Z,554.00
2023-01-18T04:42:53.409Z,553.00
2023-01-18T04:43:53.373Z,553.00
2023-01-18T04:44:53.342Z,551.00
2023-01-18T04:45:53.330Z,552.00
2023-01-18T04:46:53.348Z,551.00
2023-01-18T04:47:53.291Z,552.00
2023-01-18T04:48:53.249Z,552.00
2023-01-18T04:49:53.234Z,554.00
2023-01-18T04:50:53.201Z,550.00
2023-01-18T04:51:53.186Z,548.00
2023-01-18T04:52:53.174Z,546.00
2023-01-18T04:53:53.135Z,546.00
2023-01-18T04:54:53.102Z,546.00
2023-01-18T04:55:53.066Z,545.00
2023-01-18T04:56:53.060Z,543.00
2023-01-18T04:57:53.013Z,542.00
2023-01-18T04:58:52.994Z,541.00
2023-01-18T04:59:52.966Z,542.00
2023-01-18T05:00:53.063Z,545.00
2023-01-18T05:01:52.908Z,545.00
2023-01-18T05:02:52.866Z,548.00
2023-01-18T05:03:52.859Z,549.00
2023-01-18T05:04:52.818Z,545.00
2023-01-18T05:05:52.795Z,545.00
2023-01-18T05:06:52.779Z,543.00
2023-01-18T05:07:52.731Z,546.00
2023-01-18T05:08:52.695Z,542.00
2023-01-18T05:09:52.687Z,543.00
2023-01-18T05:10:52.646Z,543.00
2023-01-18T05:11:52.615Z,546.00
2023-01-18T05:12:52.603Z,547.00
2023-01-18T05:13:52.582Z,548.00
2023-01-18T05:14:52.523Z,544.00
2023-01-18T05:15:52.605Z,542.00
2023-01-18T05:16:52.454Z,542.00
2023-01-18T05:17:52.437Z,541.00
2023-01-18T05:18:52.412Z,543.00
2023-01-18T05:19:52.379Z,543.00
2023-01-18T05:20:52.339Z,545.00
2023-01-18T05:21:52.316Z,548.00
2023-01-18T05:22:52.279Z,546.00
2023-01-18T05:23:52.250Z,546.00
2023-01-18T05:24:52.207Z,543.00
2023-01-18T05:25:52.195Z,542.00
2023-01-18T05:26:52.151Z,542.00
2023-01-18T05:27:52.118Z,542.00
2023-01-18T05:28:52.078Z,542.00
2023-01-18T05:29:52.043Z,542.00
2023-01-18T05:30:52.001Z,543.00
2023-01-18T05:31:52.018Z,544.00
2023-01-18T05:32:51.948Z,542.00
2023-01-18T05:33:51.916Z,539.00
2023-01-18T05:34:51.879Z,541.00
2023-01-18T05:35:51.839Z,541.00
2023-01-18T05:36:51.822Z,540.00
2023-01-18T05:37:51.787Z,539.00
2023-01-18T05:38:51.739Z,537.00
2023-01-18T05:39:51.723Z,535.00
2023-01-18T05:40:51.661Z,535.00
2023-01-18T05:41:51.640Z,537.00
2023-01-18T05:42:51.635Z,538.00
2023-01-18T05:43:51.581Z,536.00
2023-01-18T05:44:51.566Z,535.00
2023-01-18T05:45:51.565Z,533.00
2023-01-18T05:46:51.484Z,533.00
2023-01-18T05:47:51.433Z,533.00
2023-01-18T05:48:51.446Z,532.00
2023-01-18T05:49:51.386Z,532.00
2023-01-18T05:50:51.364Z,533.00
2023-01-18T05:51:51.337Z,534.00
2023-01-18T05:52:51.296Z,538.00
2023-01-18T05:53:51.263Z,535.00
2023-01-18T05:54:51.234Z,536.00
2023-01-18T05:55:51.203Z,539.00
2023-01-18T05:56:51.180Z,538.00
2023-01-18T05:57:51.135Z,539.00
2023-01-18T05:58:51.105Z,539.00
2023-01-18T05:59:51.076Z,538.00
2023-01-18T06:00:51.086Z,539.00
2023-01-18T06:01:51.030Z,538.00
2023-01-18T06:02:50.986Z,539.00
2023-01-18T06:03:50.961Z,541.00
2023-01-18T06:04:50.918Z,543.00
2023-01-18T06:05:50.878Z,541.00
2023-01-18T06:06:50.841Z,541.00
2023-01-18T06:07:50.823Z,542.00
2023-01-18T06:08:50.797Z,544.00
2023-01-18T06:09:50.762Z,544.00
2023-01-18T06:10:50.744Z,552.00
2023-01-18T06:11:50.694Z,550.00
2023-01-18T06:12:50.684Z,548.00
2023-01-18T06:13:50.663Z,549.00
2023-01-18T06:14:50.624Z,550.00
2023-01-18T06:15:50.570Z,549.00
2023-01-18T06:16:50.537Z,550.00
2023-01-18T06:17:50.516Z,551.00
2023-01-18T06:18:50.482Z,548.00
2023-01-18T06:19:50.471Z,547.00
2023-01-18T06:20:50.462Z,547.00
2023-01-18T06:21:50.426Z,545.00
2023-01-18T06:22:50.440Z,546.00
2023-01-18T06:23:50.354Z,546.00
2023-01-18T06:24:50.311Z,546.00
2023-01-18T06:25:50.232Z,541.00
2023-01-18T06:26:50.211Z,537.00
2023-01-18T06:27:50.169Z,532.00
2023-01-18T06:28:50.185Z,549.00
2023-01-18T06:29:50.142Z,996.00
2023-01-18T06:30:50.098Z,664.00
2023-01-18T06:31:50.108Z,629.00
2023-01-18T06:32:50.066Z,628.00
2023-01-18T06:33:50.046Z,628.00
2023-01-18T06:34:50.037Z,635.00
2023-01-18T06:35:50.173Z,698.00
2023-01-18T06:36:49.996Z,715.00
2023-01-18T06:37:49.951Z,764.00
2023-01-18T06:38:49.953Z,758.00
2023-01-18T06:39:49.886Z,769.00
2023-01-18T06:40:49.860Z,810.00
2023-01-18T06:41:49.854Z,813.00
2023-01-18T06:42:49.814Z,823.00
2023-01-18T06:43:49.787Z,844.00
2023-01-18T06:44:49.764Z,868.00
2023-01-18T06:45:52.167Z,889.00
2023-01-18T06:46:49.857Z,902.00
2023-01-18T06:47:49.825Z,914.00
2023-01-18T06:48:49.777Z,931.00
2023-01-18T06:49:49.767Z,949.00
2023-01-18T06:50:49.721Z,960.00
2023-01-18T06:51:49.682Z,968.00
2023-01-18T06:52:49.702Z,973.00
2023-01-18T06:53:49.603Z,999.00
2023-01-18T06:54:49.612Z,1049.00
2023-01-18T06:55:49.543Z,1059.00
2023-01-18T06:56:49.545Z,1075.00
2023-01-18T06:57:49.575Z,1089.00
2023-01-18T06:58:49.457Z,1109.00
2023-01-18T06:59:49.441Z,1138.00
2023-01-18T07:00:49.499Z,1151.00
2023-01-18T07:01:51.509Z,1175.00
2023-01-18T07:02:55.394Z,1190.00
2023-01-18T07:03:54.028Z,1204.00
2023-01-18T07:04:54.321Z,1221.00
2023-01-18T07:06:00.639Z,1252.00
2023-01-18T07:06:56.814Z,1279.00
2023-01-18T07:07:52.627Z,1311.00
2023-01-18T07:09:51.751Z,1349.00
2023-01-18T07:10:52.034Z,1364.00
2023-01-18T07:11:53.454Z,1373.00
2023-01-18T07:12:56.074Z,1388.00
2023-01-18T07:13:55.804Z,1414.00
2023-01-18T07:14:52.983Z,1451.00
2023-01-18T07:16:04.438Z,1464.00
2023-01-18T07:16:54.264Z,1485.00
2023-01-18T07:17:57.093Z,1545.00
2023-01-18T07:19:01.413Z,1552.00
2023-01-18T07:19:57.995Z,1562.00
2023-01-18T07:20:56.925Z,1578.00
2023-01-18T07:22:00.760Z,1592.00
2023-01-18T07:22:58.911Z,1617.00
2023-01-18T07:23:54.848Z,1629.00
2023-01-18T07:24:53.257Z,1646.00
2023-01-18T07:25:49.888Z,1657.00
2023-01-18T07:27:57.832Z,1690.00
2023-01-18T07:28:58.551Z,1704.00
2023-01-18T07:29:53.430Z,1729.00
2023-01-18T07:30:49.985Z,1753.00
2023-01-18T07:31:51.192Z,1766.00
2023-01-18T07:32:52.647Z,1786.00
2023-01-18T07:33:49.920Z,1802.00
2023-01-18T07:34:49.861Z,1829.00
2023-01-18T07:35:48.561Z,1848.00
2023-01-18T07:36:50.649Z,1864.00
2023-01-18T07:37:51.964Z,1886.00
2023-01-18T07:38:48.679Z,1889.00
2023-01-18T07:39:48.561Z,1910.00
2023-01-18T07:40:50.671Z,1920.00
2023-01-18T07:41:48.443Z,1936.00
2023-01-18T07:42:49.240Z,1936.00
2023-01-18T07:43:48.584Z,1895.00
2023-01-18T07:44:48.539Z,1770.00
2023-01-18T07:45:48.484Z,1757.00
2023-01-18T07:46:48.955Z,1825.00
2023-01-18T07:47:48.973Z,1765.00
2023-01-18T07:48:48.047Z,1716.00
2023-01-18T07:49:49.737Z,1174.00
2023-01-18T07:50:48.762Z,1025.00
2023-01-18T07:51:49.474Z,1155.00
2023-01-18T07:52:48.506Z,1293.00
2023-01-18T07:53:48.406Z,1334.00
2023-01-18T07:54:48.215Z,1361.00
2023-01-18T07:55:47.921Z,1371.00
2023-01-18T07:56:47.916Z,1370.00
2023-01-18T07:57:47.810Z,1322.00
2023-01-18T07:58:47.740Z,1296.00
2023-01-18T07:59:47.733Z,1275.00
2023-01-18T08:00:47.780Z,1243.00
2023-01-18T08:01:47.686Z,1143.00
2023-01-18T08:02:47.627Z,1097.00
2023-01-18T08:03:47.576Z,1008.00
2023-01-18T08:04:47.586Z,964.00
2023-01-18T08:05:47.490Z,906.00
2023-01-18T08:06:47.467Z,932.00
2023-01-18T08:07:47.445Z,913.00
2023-01-18T08:08:47.433Z,933.00
2023-01-18T08:09:47.380Z,1009.00
2023-01-18T08:10:47.362Z,1030.00
2023-01-18T08:11:47.322Z,1034.00
2023-01-18T08:12:47.300Z,1046.00
2023-01-18T08:13:47.239Z,1065.00
2023-01-18T08:14:47.244Z,1089.00
2023-01-18T08:15:47.321Z,1146.00
2023-01-18T08:16:47.164Z,1145.00
2023-01-18T08:17:47.103Z,1142.00
2023-01-18T08:18:47.112Z,1148.00
2023-01-18T08:19:47.010Z,1162.00
2023-01-18T08:20:47.079Z,1183.00
2023-01-18T08:21:46.962Z,1197.00
2023-01-18T08:22:46.899Z,1210.00
2023-01-18T08:23:46.874Z,1237.00
2023-01-18T08:24:46.841Z,1243.00
2023-01-18T08:25:46.801Z,1257.00
2023-01-18T08:26:46.752Z,1283.00
2023-01-18T08:27:46.682Z,1291.00
2023-01-18T08:28:46.658Z,1299.00
2023-01-18T08:29:46.619Z,1316.00
2023-01-18T08:30:46.687Z,1327.00
2023-01-18T08:31:46.543Z,1338.00
2023-01-18T08:32:46.492Z,1351.00
2023-01-18T08:33:46.444Z,1350.00
2023-01-18T08:34:46.406Z,1362.00
2023-01-18T08:35:46.366Z,1378.00
2023-01-18T08:36:46.337Z,1420.00
2023-01-18T08:37:46.302Z,1438.00
2023-01-18T08:38:46.251Z,1420.00
2023-01-18T08:39:46.210Z,1423.00
2023-01-18T08:40:46.227Z,1260.00
2023-01-18T08:41:46.134Z,1283.00
2023-01-18T08:42:46.102Z,1288.00
2023-01-18T08:43:46.063Z,1283.00
2023-01-18T08:44:46.038Z,1095.00
2023-01-18T08:45:45.990Z,1106.00
2023-01-18T08:46:45.996Z,1108.00
2023-01-18T08:47:45.970Z,1065.00
2023-01-18T08:48:45.935Z,1009.00
2023-01-18T08:49:45.867Z,939.00
2023-01-18T08:50:45.978Z,902.00
2023-01-18T08:51:45.842Z,874.00
2023-01-18T08:52:45.846Z,809.00
2023-01-18T08:53:45.995Z,804.00
2023-01-18T08:54:45.860Z,790.00
2023-01-18T08:55:45.747Z,768.00
2023-01-18T08:56:45.720Z,742.00
2023-01-18T08:57:45.651Z,726.00
2023-01-18T08:58:45.615Z,707.00
2023-01-18T08:59:45.587Z,691.00
2023-01-18T09:00:45.676Z,654.00
2023-01-18T09:01:45.539Z,644.00
2023-01-18T09:02:45.554Z,636.00
2023-01-18T09:03:45.483Z,617.00
2023-01-18T09:04:45.456Z,605.00
2023-01-18T09:05:45.417Z,601.00
2023-01-18T09:06:45.424Z,596.00
2023-01-18T09:07:45.369Z,589.00
2023-01-18T09:08:45.368Z,582.00
2023-01-18T09:09:45.284Z,574.00
2023-01-18T09:10:45.277Z,573.00
2023-01-18T09:11:45.288Z,569.00
2023-01-18T09:12:45.208Z,566.00
2023-01-18T09:13:59.698Z,567.00
2023-01-18T09:14:46.123Z,565.00
2023-01-18T09:15:45.113Z,563.00
2023-01-18T09:16:45.023Z,561.00
2023-01-18T09:17:45.039Z,560.00
2023-01-18T09:18:44.930Z,562.00
2023-01-18T09:19:44.888Z,559.00
2023-01-18T09:20:44.832Z,554.00
2023-01-18T09:21:44.804Z,548.00
2023-01-18T09:22:44.812Z,536.00
2023-01-18T09:23:44.720Z,531.00
2023-01-18T09:24:44.661Z,524.00
2023-01-18T09:25:44.623Z,520.00
2023-01-18T09:26:45.312Z,516.00
2023-01-18T09:27:44.563Z,516.00
2023-01-18T09:28:44.538Z,516.00
2023-01-18T09:29:44.473Z,515.00
2023-01-18T09:30:44.540Z,640.00
2023-01-18T09:31:44.447Z,571.00
2023-01-18T09:32:44.421Z,552.00
2023-01-18T09:33:52.744Z,538.00
2023-01-18T09:34:45.326Z,532.00
2023-01-18T09:35:44.285Z,522.00
2023-01-18T09:36:44.272Z,514.00
2023-01-18T09:37:44.301Z,508.00
2023-01-18T09:38:44.241Z,522.00
2023-01-18T09:39:51.732Z,520.00
2023-01-18T09:40:44.213Z,519.00
2023-01-18T09:41:44.167Z,514.00
2023-01-18T09:42:44.172Z,508.00
2023-01-18T09:43:44.169Z,503.00
2023-01-18T09:44:44.136Z,499.00
2023-01-18T09:45:44.147Z,501.00
2023-01-18T09:46:44.190Z,500.00
2023-01-18T09:47:44.129Z,501.00
2023-01-18T09:48:44.091Z,502.00
2023-01-18T09:49:44.066Z,499.00
2023-01-18T09:50:44.069Z,580.00
2023-01-18T09:51:44.051Z,597.00
2023-01-18T09:52:44.032Z,681.00
2023-01-18T09:53:44.033Z,747.00
2023-01-18T09:54:44.026Z,765.00
2023-01-18T09:55:43.972Z,851.00
2023-01-18T09:56:43.951Z,870.00
2023-01-18T09:57:43.959Z,893.00
2023-01-18T09:58:43.925Z,925.00
2023-01-18T09:59:43.891Z,940.00
2023-01-18T10:00:44.060Z,970.00
2023-01-18T10:01:44.077Z,988.00
2023-01-18T10:02:43.857Z,1017.00
2023-01-18T10:03:43.809Z,1023.00
2023-01-18T10:04:43.772Z,1038.00
2023-01-18T10:05:43.735Z,1055.00
2023-01-18T10:06:43.722Z,1065.00
2023-01-18T10:07:43.718Z,1079.00
2023-01-18T10:08:43.647Z,1087.00
2023-01-18T10:09:43.616Z,1099.00
2023-01-18T10:10:43.599Z,1123.00
2023-01-18T10:11:43.558Z,1136.00
2023-01-18T10:12:43.528Z,1156.00
2023-01-18T10:13:43.484Z,1181.00
2023-01-18T10:14:43.471Z,1219.00
2023-01-18T10:15:43.449Z,1225.00
2023-01-18T10:16:43.471Z,1233.00
2023-01-18T10:17:43.396Z,1245.00
2023-01-18T10:18:43.348Z,1260.00
2023-01-18T10:19:43.378Z,1275.00
2023-01-18T10:20:43.284Z,1294.00
2023-01-18T10:21:43.259Z,1303.00
2023-01-18T10:22:43.250Z,1312.00
2023-01-18T10:23:43.191Z,1314.00
2023-01-18T10:24:43.161Z,1310.00
2023-01-18T10:25:43.126Z,1228.00
2023-01-18T10:26:43.125Z,1029.00
2023-01-18T10:27:43.095Z,1029.00
2023-01-18T10:28:43.021Z,1025.00
2023-01-18T10:29:43.004Z,950.00
2023-01-18T10:30:42.963Z,946.00
2023-01-18T10:31:42.988Z,944.00
2023-01-18T10:32:43.036Z,857.00
2023-01-18T10:33:42.885Z,833.00
2023-01-18T10:34:42.860Z,823.00
2023-01-18T10:35:42.827Z,817.00
2023-01-18T10:36:42.805Z,819.00
2023-01-18T10:37:42.781Z,810.00
2023-01-18T10:38:42.767Z,768.00
2023-01-18T10:39:42.730Z,757.00
2023-01-18T10:40:42.761Z,749.00
2023-01-18T10:41:42.667Z,790.00
2023-01-18T10:42:42.659Z,816.00
2023-01-18T10:43:42.651Z,886.00
2023-01-18T10:44:42.616Z,896.00
2023-01-18T10:45:42.563Z,905.00
2023-01-18T10:46:42.552Z,914.00
2023-01-18T10:47:42.502Z,914.00
2023-01-18T10:48:42.507Z,908.00
2023-01-18T10:49:42.474Z,903.00
2023-01-18T10:50:42.454Z,897.00
2023-01-18T10:51:42.437Z,890.00
2023-01-18T10:52:42.386Z,890.00
2023-01-18T10:53:42.377Z,891.00
2023-01-18T10:54:42.314Z,887.00
2023-01-18T10:55:42.417Z,877.00
2023-01-18T10:56:42.286Z,869.00
2023-01-18T10:57:42.251Z,867.00
2023-01-18T10:58:42.232Z,865.00
2023-01-18T10:59:42.207Z,864.00
2023-01-18T11:00:42.184Z,861.00
2023-01-18T11:01:42.212Z,862.00
2023-01-18T11:02:42.152Z,857.00
2023-01-18T11:03:42.117Z,852.00
2023-01-18T11:04:42.030Z,846.00
2023-01-18T11:05:41.994Z,845.00
2023-01-18T11:06:41.979Z,846.00
2023-01-18T11:07:41.940Z,841.00
2023-01-18T11:08:41.931Z,838.00
2023-01-18T11:09:41.925Z,836.00
2023-01-18T11:10:41.838Z,833.00
2023-01-18T11:11:41.806Z,831.00
2023-01-18T11:12:41.763Z,832.00
2023-01-18T11:13:41.755Z,829.00
2023-01-18T11:14:41.682Z,827.00
2023-01-18T11:15:41.671Z,824.00
2023-01-18T11:16:41.631Z,824.00
2023-01-18T11:17:41.598Z,826.00
2023-01-18T11:18:41.573Z,826.00
2023-01-18T11:19:41.510Z,827.00
2023-01-18T11:20:41.478Z,826.00
2023-01-18T11:21:41.428Z,828.00
2023-01-18T11:22:41.398Z,825.00
2023-01-18T11:23:43.719Z,824.00
2023-01-18T11:24:41.371Z,823.00
2023-01-18T11:25:41.339Z,825.00
2023-01-18T11:26:41.285Z,826.00
2023-01-18T11:27:41.240Z,829.00
2023-01-18T11:28:41.218Z,827.00
2023-01-18T11:29:41.189Z,826.00
2023-01-18T11:30:41.136Z,822.00
2023-01-18T11:31:41.189Z,820.00
2023-01-18T11:32:41.079Z,817.00
2023-01-18T11:33:41.024Z,813.00
2023-01-18T11:34:41.024Z,812.00
2023-01-18T11:35:40.998Z,814.00
2023-01-18T11:36:40.947Z,811.00
2023-01-18T11:37:40.913Z,807.00
2023-01-18T11:38:40.881Z,806.00
2023-01-18T11:39:40.818Z,803.00
2023-01-18T11:40:40.781Z,805.00
2023-01-18T11:41:40.810Z,803.00
2023-01-18T11:42:40.749Z,801.00
2023-01-18T11:43:40.669Z,799.00
2023-01-18T11:44:40.647Z,799.00
2023-01-18T11:45:40.694Z,796.00
2023-01-18T11:46:40.517Z,791.00
2023-01-18T11:47:40.475Z,788.00
2023-01-18T11:48:40.429Z,785.00
2023-01-18T11:49:40.372Z,786.00
2023-01-18T11:50:40.339Z,787.00
2023-01-18T11:51:40.299Z,786.00
2023-01-18T11:52:40.218Z,783.00
2023-01-18T11:53:40.167Z,782.00
2023-01-18T11:54:40.174Z,779.00
2023-01-18T11:55:40.125Z,776.00
2023-01-18T11:56:40.044Z,772.00
2023-01-18T11:57:39.999Z,770.00
2023-01-18T11:58:39.919Z,768.00
2023-01-18T11:59:39.889Z,767.00
2023-01-18T12:00:39.836Z,765.00
2023-01-18T12:01:39.776Z,763.00
2023-01-18T12:02:39.784Z,758.00
2023-01-18T12:03:39.751Z,758.00
2023-01-18T12:04:39.647Z,756.00
2023-01-18T12:05:39.610Z,756.00
2023-01-18T12:06:39.536Z,754.00
2023-01-18T12:07:39.470Z,752.00
2023-01-18T12:08:39.432Z,752.00
2023-01-18T12:09:39.395Z,751.00
2023-01-18T12:10:39.349Z,749.00
2023-01-18T12:11:39.279Z,750.00
2023-01-18T12:12:39.282Z,750.00
2023-01-18T12:13:39.171Z,746.00
2023-01-18T12:14:39.119Z,745.00
2023-01-18T12:15:39.077Z,747.00
2023-01-18T12:16:39.068Z,745.00
2023-01-18T12:17:38.979Z,746.00
2023-01-18T12:18:38.921Z,745.00
2023-01-18T13:17:36.304Z,732.00
2023-01-18T13:30:35.756Z,730.00
2023-01-18T13:35:35.571Z,725.00
2023-01-18T13:39:35.414Z,729.00
2023-01-18T13:40:35.351Z,730.00
2023-01-18T13:41:35.326Z,734.00
2023-01-18T13:42:35.272Z,736.00
2023-01-18T13:43:35.247Z,737.00
2023-01-18T13:44:35.208Z,736.00
2023-01-18T13:45:35.163Z,735.00
2023-01-18T13:46:35.243Z,736.00
2023-01-18T13:47:35.097Z,737.00
2023-01-18T13:48:35.056Z,737.00
2023-01-18T13:49:37.956Z,737.00
2023-01-18T13:50:34.964Z,737.00
2023-01-18T13:51:34.938Z,736.00
2023-01-18T13:52:34.855Z,735.00
2023-01-18T13:53:34.822Z,734.00
2023-01-18T13:54:34.808Z,734.00
2023-01-18T13:55:34.730Z,731.00
2023-01-18T13:56:34.725Z,731.00
2023-01-18T13:57:34.650Z,730.00
2023-01-18T13:58:34.598Z,730.00
2023-01-18T13:59:34.568Z,731.00
2023-01-18T14:00:34.512Z,730.00
2023-01-18T14:01:34.669Z,730.00
2023-01-18T14:02:34.480Z,730.00
2023-01-18T14:03:34.406Z,728.00
2023-01-18T14:04:34.352Z,728.00
2023-01-18T14:05:34.318Z,728.00
2023-01-18T14:06:34.275Z,729.00
2023-01-18T14:07:34.252Z,727.00
2023-01-18T14:08:34.176Z,726.00
2023-01-18T14:09:34.169Z,728.00
2023-01-18T14:10:34.116Z,728.00
2023-01-18T14:11:34.073Z,727.00
2023-01-18T14:12:34.079Z,724.00
2023-01-18T14:13:33.981Z,723.00
2023-01-18T14:14:33.949Z,722.00
2023-01-18T14:15:33.910Z,722.00
2023-01-18T14:16:33.895Z,722.00
2023-01-18T14:17:33.843Z,723.00
2023-01-18T14:18:33.819Z,721.00
2023-01-18T14:19:33.755Z,717.00
2023-01-18T14:20:33.705Z,715.00
2023-01-18T14:21:33.678Z,713.00
2023-01-18T14:22:33.668Z,713.00
2023-01-18T14:23:33.610Z,711.00
2023-01-18T14:24:33.578Z,709.00
2023-01-18T14:25:33.559Z,709.00
2023-01-18T14:26:33.522Z,706.00
2023-01-18T14:27:33.472Z,703.00
2023-01-18T14:28:36.309Z,703.00
2023-01-18T14:29:33.369Z,705.00
2023-01-18T14:30:33.358Z,705.00
2023-01-18T14:31:33.413Z,706.00